createdAt,value
2023-02-05T00:01:55.239Z,2.78
2023-02-05T00:04:22.198Z,6.55
2023-02-05T00:06:49.372Z,3.40
2023-02-05T00:09:16.306Z,3.90
2023-02-05T00:11:43.209Z,5.43
2023-02-05T00:14:10.778Z,4.40
2023-02-05T00:16:37.900Z,4.57
2023-02-05T00:19:04.817Z,5.07
2023-02-05T00:21:31.804Z,5.32
2023-02-05T00:23:58.731Z,7.35
2023-02-05T00:26:25.636Z,5.22
2023-02-05T00:28:54.238Z,5.30
2023-02-05T00:31:23.181Z,4.13
2023-02-05T00:33:52.584Z,6.68
2023-02-05T00:36:21.541Z,7.05
2023-02-05T00:38:49.076Z,5.82
2023-02-05T00:41:16.936Z,4.57
2023-02-05T00:43:44.453Z,6.80
2023-02-05T00:46:13.130Z,4.78
2023-02-05T00:48:41.324Z,5.10
2023-02-05T00:51:10.269Z,6.28
2023-02-05T00:53:37.500Z,6.45
2023-02-05T00:56:04.655Z,4.43
2023-02-05T00:58:32.051Z,6.63
2023-02-05T01:00:59.026Z,9.25
2023-02-05T01:03:27.327Z,6.15
2023-02-05T01:05:54.255Z,7.47
2023-02-05T01:08:21.300Z,6.25
2023-02-05T01:10:50.760Z,6.47
2023-02-05T01:13:19.204Z,6.93
2023-02-05T01:15:46.929Z,5.60
2023-02-05T01:18:13.972Z,6.22
2023-02-05T01:20:42.471Z,5.60
2023-02-05T01:23:11.159Z,6.65
2023-02-05T01:25:38.690Z,6.63
2023-02-05T01:28:06.820Z,8.95
2023-02-05T01:30:34.931Z,5.43
2023-02-05T01:33:03.899Z,8.38
2023-02-05T01:35:31.929Z,8.80
2023-02-05T01:37:59.350Z,8.05
2023-02-05T01:40:26.566Z,8.45
2023-02-05T01:42:53.512Z,13.50
2023-02-05T01:45:23.613Z,5.28
2023-02-05T01:47:54.462Z,6.45
2023-02-05T01:50:45.387Z,9.90
2023-02-05T01:53:19.999Z,8.45
2023-02-05T01:56:00.911Z,7.75
2023-02-05T01:58:32.901Z,8.20
2023-02-05T02:00:59.963Z,9.25
2023-02-05T02:03:28.557Z,8.80
2023-02-05T02:05:56.166Z,8.95
2023-02-05T02:08:23.286Z,8.00
2023-02-05T02:10:52.979Z,9.68
2023-02-05T02:13:22.416Z,9.00
2023-02-05T02:15:50.370Z,7.95
2023-02-05T02:18:27.816Z,7.22
2023-02-05T02:21:23.222Z,7.95
2023-02-05T02:24:17.968Z,8.73
2023-02-05T02:27:21.777Z,8.98
2023-02-05T02:30:04.543Z,6.85
2023-02-05T02:33:01.605Z,11.25
2023-02-05T02:38:54.033Z,7.15
2023-02-05T02:41:40.600Z,7.93
2023-02-05T02:44:15.950Z,10.15
2023-02-05T02:46:52.430Z,7.22
2023-02-05T02:49:37.132Z,8.05
2023-02-05T02:52:08.159Z,9.90
2023-02-05T02:54:37.286Z,8.90
2023-02-05T02:57:08.404Z,11.23
2023-02-05T02:59:38.527Z,11.68
2023-02-05T03:02:09.875Z,8.27
2023-02-05T03:04:41.051Z,13.57
2023-02-05T03:07:19.524Z,10.77
2023-02-05T03:10:01.788Z,11.95
2023-02-05T03:12:29.721Z,12.25
2023-02-05T03:14:57.291Z,13.60
2023-02-05T03:17:26.743Z,10.18
2023-02-05T03:20:06.826Z,13.13
2023-02-05T03:22:34.275Z,11.23
2023-02-05T03:25:03.068Z,12.60
2023-02-05T03:27:31.432Z,12.90
2023-02-05T03:30:00.975Z,10.68
2023-02-05T03:33:08.469Z,14.07
2023-02-05T03:35:49.645Z,9.38
2023-02-05T03:38:49.874Z,9.73
2023-02-05T03:42:12.860Z,10.63
2023-02-05T03:45:03.273Z,9.90
2023-02-05T03:48:17.329Z,10.48
2023-02-05T03:51:16.165Z,11.00
2023-02-05T03:53:58.086Z,9.73
2023-02-05T03:56:50.241Z,12.07
2023-02-05T03:59:18.957Z,11.75
2023-02-05T04:01:46.989Z,10.00
2023-02-05T04:04:15.221Z,11.73
2023-02-05T04:06:42.748Z,12.23
2023-02-05T04:09:11.303Z,10.40
2023-02-05T04:11:39.265Z,13.18
2023-02-05T04:14:06.289Z,13.02
2023-02-05T04:16:33.982Z,14.50
2023-02-05T04:19:01.434Z,14.88
2023-02-05T04:21:29.460Z,12.05
2023-02-05T04:23:56.975Z,9.90
2023-02-05T04:26:24.637Z,15.00
2023-02-05T04:29:00.544Z,9.60
2023-02-05T04:31:29.509Z,10.43
2023-02-05T04:33:57.218Z,11.73
2023-02-05T04:36:24.744Z,9.60
2023-02-05T04:38:51.896Z,12.18
2023-02-05T04:41:21.215Z,10.50
2023-02-05T04:43:48.200Z,12.40
2023-02-05T04:46:15.083Z,12.75
2023-02-05T04:48:41.994Z,15.77
2023-02-05T04:51:13.827Z,18.55
2023-02-05T04:53:41.600Z,17.45
2023-02-05T04:56:15.531Z,14.48
2023-02-05T04:58:43.644Z,16.27
2023-02-05T05:01:22.786Z,16.42
2023-02-05T05:03:50.830Z,13.85
2023-02-05T05:06:20.308Z,15.60
2023-02-05T05:08:47.258Z,17.55
2023-02-05T05:11:18.666Z,12.88
2023-02-05T05:13:46.459Z,12.70
2023-02-05T05:16:13.695Z,15.57
2023-02-05T05:18:41.031Z,12.95
2023-02-05T05:21:08.592Z,14.43
2023-02-05T05:23:37.468Z,11.52
2023-02-05T05:26:07.801Z,12.40
2023-02-05T05:28:35.740Z,14.10
2023-02-05T05:31:17.229Z,10.05
2023-02-05T05:33:44.109Z,11.13
2023-02-05T05:36:11.179Z,11.18
2023-02-05T05:38:38.457Z,9.23
2023-02-05T05:41:24.151Z,9.10
2023-02-05T05:43:55.098Z,10.68
2023-02-05T05:46:26.080Z,10.50
2023-02-05T05:48:58.783Z,9.95
2023-02-05T05:51:27.997Z,11.73
2023-02-05T05:53:55.789Z,8.88
2023-02-05T05:56:23.297Z,9.55
2023-02-05T05:58:50.753Z,6.75
2023-02-05T06:01:20.479Z,12.02
2023-02-05T06:03:47.711Z,8.88
2023-02-05T06:06:14.639Z,10.40
2023-02-05T06:08:41.680Z,9.98
2023-02-05T06:11:08.876Z,10.43
2023-02-05T06:13:35.812Z,7.60
2023-02-05T06:16:03.728Z,7.45
2023-02-05T06:18:31.096Z,9.18
2023-02-05T06:20:58.139Z,8.07
2023-02-05T06:23:25.008Z,9.05
2023-02-05T06:25:52.083Z,9.30
2023-02-05T06:28:19.547Z,8.20
2023-02-05T06:30:46.691Z,12.18
2023-02-05T06:33:13.832Z,10.85
2023-02-05T06:35:42.219Z,9.23
2023-02-05T06:38:09.675Z,9.55
2023-02-05T06:40:37.010Z,9.27
2023-02-05T06:43:04.260Z,12.55
2023-02-05T06:45:31.185Z,10.07
2023-02-05T06:47:58.962Z,9.35
2023-02-05T06:50:26.120Z,15.10
2023-02-05T06:52:53.226Z,8.80
2023-02-05T06:55:20.445Z,10.02
2023-02-05T06:57:47.743Z,12.60
2023-02-05T07:00:15.987Z,17.00
2023-02-05T07:02:43.185Z,11.18
2023-02-05T07:05:10.370Z,9.65
2023-02-05T07:07:37.344Z,11.77
2023-02-05T07:10:05.021Z,9.80
2023-02-05T07:12:32.047Z,14.25
2023-02-05T07:14:59.186Z,9.27
2023-02-05T07:17:26.455Z,11.27
2023-02-05T07:19:53.506Z,9.95
2023-02-05T07:22:20.628Z,13.40
2023-02-05T07:24:47.535Z,10.10
2023-02-05T07:27:14.531Z,11.55
2023-02-05T07:29:41.864Z,11.52
2023-02-05T07:32:08.914Z,12.27
2023-02-05T07:34:35.995Z,10.82
2023-02-05T07:37:03.002Z,10.98
2023-02-05T07:39:30.072Z,9.27
2023-02-05T07:41:57.012Z,12.38
2023-02-05T07:44:35.390Z,12.68
2023-02-05T07:47:02.321Z,10.57
2023-02-05T07:49:29.276Z,16.23
2023-02-05T07:51:56.160Z,11.32
2023-02-05T07:54:24.533Z,9.75
2023-02-05T07:56:51.399Z,12.73
2023-02-05T07:59:18.366Z,10.70
2023-02-05T08:01:45.508Z,9.80
2023-02-05T08:04:12.623Z,9.88
2023-02-05T08:06:39.702Z,10.00
2023-02-05T08:09:06.645Z,15.05
2023-02-05T08:11:33.764Z,10.23
2023-02-05T08:14:01.280Z,8.40
2023-02-05T08:16:28.322Z,9.05
2023-02-05T08:18:55.252Z,11.82
2023-02-05T08:21:22.206Z,9.32
2023-02-05T08:23:50.010Z,12.75
2023-02-05T08:26:18.910Z,11.50
2023-02-05T08:28:46.539Z,7.68
2023-02-05T08:31:18.471Z,10.50
2023-02-05T08:33:48.232Z,11.02
2023-02-05T08:36:15.949Z,10.93
2023-02-05T08:38:44.189Z,15.93
2023-02-05T08:41:15.408Z,11.52
2023-02-05T08:43:49.289Z,9.02
2023-02-05T08:46:22.016Z,8.15
2023-02-05T08:48:50.745Z,10.27
2023-02-05T08:51:20.338Z,9.73
2023-02-05T08:53:47.972Z,10.18
2023-02-05T08:56:16.014Z,6.97
2023-02-05T08:58:44.240Z,9.80
2023-02-05T09:01:17.220Z,11.25
2023-02-05T09:03:46.421Z,10.85
2023-02-05T09:06:17.427Z,8.80
2023-02-05T09:08:45.321Z,10.90
2023-02-05T09:11:13.684Z,9.52
2023-02-05T09:13:41.793Z,10.45
2023-02-05T09:16:11.177Z,9.32
2023-02-05T09:18:38.280Z,12.00
2023-02-05T09:21:10.668Z,8.98
2023-02-05T09:23:38.397Z,9.40
2023-02-05T09:26:07.173Z,9.52
2023-02-05T09:28:34.435Z,11.93
2023-02-05T09:31:12.372Z,11.40
2023-02-05T09:33:39.809Z,8.45
2023-02-05T09:36:14.530Z,8.43
2023-02-05T09:38:41.693Z,8.35
2023-02-05T09:41:18.042Z,8.07
2023-02-05T09:44:14.115Z,5.88
2023-02-05T09:47:03.112Z,6.53
2023-02-05T09:49:56.409Z,9.27
2023-02-05T09:52:47.625Z,6.35
2023-02-05T09:55:34.114Z,9.52
2023-02-05T09:58:07.006Z,6.38
2023-02-05T10:00:46.452Z,6.20
2023-02-05T10:03:43.253Z,7.63
2023-02-05T10:06:10.898Z,4.72
2023-02-05T10:08:58.900Z,8.65
2023-02-05T10:11:36.585Z,7.78
2023-02-05T10:14:27.142Z,5.72
2023-02-05T10:17:08.575Z,7.97
2023-02-05T10:20:07.746Z,6.00
2023-02-05T10:22:51.641Z,6.13
2023-02-05T10:25:54.230Z,4.05
2023-02-05T10:28:54.099Z,4.47
2023-02-05T10:32:15.118Z,5.93
2023-02-05T10:35:24.568Z,5.60
2023-02-05T10:37:57.593Z,5.68
2023-02-05T10:40:32.022Z,6.80
2023-02-05T10:43:27.600Z,6.57
2023-02-05T10:45:56.635Z,5.78
2023-02-05T10:48:54.876Z,3.63
2023-02-05T10:51:32.263Z,4.55
2023-02-05T10:54:00.816Z,6.32
2023-02-05T10:56:27.853Z,4.07
2023-02-05T10:59:04.491Z,3.45
2023-02-05T11:01:38.687Z,3.67
2023-02-05T11:04:15.805Z,4.47
2023-02-05T11:06:48.454Z,3.88
2023-02-05T11:09:25.893Z,4.32
2023-02-05T11:11:59.384Z,6.38
2023-02-05T11:14:42.097Z,3.72
2023-02-05T11:17:24.512Z,5.00
2023-02-05T11:19:59.584Z,5.18
2023-02-05T11:22:41.741Z,6.97
2023-02-05T11:25:26.500Z,5.88
2023-02-05T11:28:03.958Z,3.72
2023-02-05T11:30:50.479Z,4.72
2023-02-05T11:33:31.281Z,5.40
2023-02-05T11:36:05.649Z,9.43
2023-02-05T11:38:52.205Z,3.35
2023-02-05T11:41:49.670Z,4.80
2023-02-05T11:46:46.858Z,4.55
2023-02-05T11:49:31.925Z,4.13
2023-02-05T11:51:59.695Z,4.70
2023-02-05T11:54:32.890Z,3.53
2023-02-05T11:57:20.112Z,4.55
2023-02-05T12:00:08.907Z,4.38
2023-02-05T12:02:38.717Z,3.42
2023-02-05T12:05:18.334Z,3.25
2023-02-05T12:07:58.408Z,3.78
2023-02-05T12:11:00.880Z,3.70
2023-02-05T12:14:06.120Z,3.42
2023-02-05T12:16:48.148Z,3.33
2023-02-05T12:19:56.721Z,4.03
2023-02-05T12:23:15.128Z,3.88
2023-02-05T12:29:01.586Z,4.70
2023-02-05T12:31:36.834Z,4.65
2023-02-05T12:34:10.049Z,3.85
2023-02-05T12:37:02.329Z,6.10
2023-02-05T12:39:54.586Z,4.30
2023-02-05T12:42:31.097Z,2.83
2023-02-05T12:48:04.415Z,6.15
2023-02-05T12:50:57.781Z,4.85
2023-02-05T12:53:59.249Z,2.53
2023-02-05T12:57:16.134Z,2.85
2023-02-05T13:00:07.172Z,5.60
2023-02-05T13:02:53.424Z,3.35
2023-02-05T13:05:48.892Z,3.67
2023-02-05T13:08:48.033Z,4.60
2023-02-05T13:11:25.780Z,3.50
2023-02-05T13:14:06.562Z,4.13
2023-02-05T13:16:47.731Z,4.57
2023-02-05T13:19:41.160Z,3.20
2023-02-05T13:22:41.848Z,4.18
2023-02-05T13:25:45.052Z,3.83
2023-02-05T13:28:42.569Z,4.05
2023-02-05T13:31:27.346Z,3.30
2023-02-05T13:34:01.540Z,4.30
2023-02-05T13:37:01.091Z,3.13
2023-02-05T13:40:15.713Z,3.03
2023-02-05T13:43:04.824Z,2.60
2023-02-05T13:45:59.393Z,3.42
2023-02-05T13:49:00.237Z,2.10
2023-02-05T13:51:47.507Z,4.22
2023-02-05T13:54:53.501Z,3.20
2023-02-05T13:58:21.399Z,2.10
2023-02-05T14:01:21.409Z,2.75
2023-02-05T14:04:22.091Z,1.85
2023-02-05T14:07:09.697Z,2.67
2023-02-05T14:09:44.196Z,3.60
2023-02-05T14:12:22.231Z,3.92
2023-02-05T14:15:17.361Z,2.75
2023-02-05T14:17:44.342Z,3.08
2023-02-05T14:20:45.418Z,3.70
2023-02-05T14:23:49.161Z,3.97
2023-02-05T14:26:36.876Z,4.93
2023-02-05T14:29:12.917Z,3.38
2023-02-05T14:31:48.959Z,2.58
2023-02-05T14:34:47.856Z,4.45
2023-02-05T14:37:30.855Z,3.28
2023-02-05T14:39:58.848Z,4.25
2023-02-05T14:42:29.643Z,3.55
2023-02-05T14:44:58.046Z,3.97
2023-02-05T14:47:30.149Z,6.53
2023-02-05T14:50:09.825Z,3.70
2023-02-05T14:52:47.925Z,4.47
2023-02-05T14:55:14.828Z,3.35
2023-02-05T14:57:51.635Z,4.95
2023-02-05T15:00:30.625Z,3.70
2023-02-05T15:03:12.554Z,2.95
2023-02-05T15:05:46.150Z,2.35
2023-02-05T15:08:34.271Z,2.63
2023-02-05T15:11:51.152Z,2.22
2023-02-05T15:14:35.523Z,2.42
2023-02-05T15:17:05.585Z,3.65
2023-02-05T15:19:46.686Z,2.97
2023-02-05T15:22:37.550Z,3.70
2023-02-05T15:25:14.438Z,4.82
2023-02-05T15:27:55.864Z,3.55
2023-02-05T15:30:28.439Z,3.33
2023-02-05T15:33:04.166Z,5.10
2023-02-05T15:35:33.743Z,2.92
2023-02-05T15:38:43.288Z,3.88
2023-02-05T15:41:12.996Z,5.47
2023-02-05T15:43:40.104Z,3.92
2023-02-05T15:46:12.068Z,3.13
2023-02-05T15:48:40.844Z,4.00
2023-02-05T15:51:35.802Z,3.40
2023-02-05T15:54:05.513Z,5.28
2023-02-05T15:56:41.995Z,3.45
2023-02-05T16:02:00.969Z,3.85
2023-02-05T16:04:35.328Z,8.00
2023-02-05T16:07:03.598Z,3.33
2023-02-05T16:09:34.973Z,5.68
2023-02-05T16:12:12.931Z,5.57
2023-02-05T16:14:40.170Z,6.30
2023-02-05T16:17:19.853Z,5.95
2023-02-05T16:20:07.183Z,6.20
2023-02-05T16:22:45.680Z,6.35
2023-02-05T16:25:44.587Z,7.45
2023-02-05T16:28:24.811Z,10.27
2023-02-05T16:30:55.779Z,7.95
2023-02-05T16:34:02.150Z,9.02
2023-02-05T16:36:37.756Z,8.45
2023-02-05T16:39:16.680Z,8.85
2023-02-05T16:41:45.200Z,18.23
2023-02-05T16:44:30.809Z,20.45
2023-02-05T16:47:15.573Z,31.20
2023-02-05T16:49:46.077Z,40.58
2023-02-05T16:52:35.588Z,41.10
2023-02-05T16:55:26.198Z,32.40
2023-02-05T16:57:55.236Z,36.75
2023-02-05T17:00:27.572Z,26.38
2023-02-05T17:03:08.090Z,17.45
2023-02-05T17:05:36.999Z,17.35
2023-02-05T17:08:09.029Z,14.20
2023-02-05T17:10:54.931Z,11.50
2023-02-05T17:13:48.906Z,10.03
2023-02-05T17:16:31.985Z,10.88
2023-02-05T17:19:22.844Z,8.23
2023-02-05T17:22:15.540Z,11.63
2023-02-05T17:24:47.350Z,8.65
2023-02-05T17:27:28.679Z,9.73
2023-02-05T17:29:58.736Z,7.25
2023-02-05T17:32:27.150Z,10.57
2023-02-05T17:34:54.230Z,7.75
2023-02-05T17:37:21.384Z,10.93
2023-02-05T17:39:49.772Z,14.73
2023-02-05T17:42:25.723Z,11.68
2023-02-05T17:44:53.654Z,12.25
2023-02-05T17:47:20.661Z,13.60
2023-02-05T17:49:47.819Z,11.75
2023-02-05T17:52:17.775Z,13.18
2023-02-05T17:54:47.679Z,10.93
2023-02-05T17:57:21.000Z,11.48
2023-02-05T17:59:48.829Z,10.93
2023-02-05T18:02:16.705Z,11.82
2023-02-05T18:04:45.161Z,12.75
2023-02-05T18:07:32.505Z,12.95
2023-02-05T18:09:59.601Z,12.15
2023-02-05T18:12:27.417Z,13.18
2023-02-05T18:14:54.903Z,14.35
2023-02-05T18:17:21.920Z,15.05
2023-02-05T18:19:48.926Z,16.00
2023-02-05T18:22:15.964Z,16.98
2023-02-05T18:24:43.044Z,18.02
2023-02-05T18:27:11.940Z,17.80
2023-02-05T18:29:40.011Z,20.40
2023-02-05T18:32:07.660Z,18.85
2023-02-05T18:34:34.737Z,18.60
2023-02-05T18:37:01.756Z,21.92
2023-02-05T18:39:29.491Z,17.23
2023-02-05T18:41:57.551Z,18.67
2023-02-05T18:44:26.455Z,19.15
2023-02-05T18:46:54.159Z,21.58
2023-02-05T18:49:21.180Z,23.63
2023-02-05T18:51:48.139Z,16.67
2023-02-05T18:54:15.130Z,24.10
2023-02-05T18:56:42.198Z,25.30
2023-02-05T18:59:13.765Z,20.85
2023-02-05T19:01:41.645Z,22.90
2023-02-05T19:04:14.745Z,20.33
2023-02-05T19:06:45.379Z,24.95
2023-02-05T19:09:12.480Z,19.55
2023-02-05T19:11:44.129Z,19.73
2023-02-05T19:14:13.924Z,22.73
2023-02-05T19:16:42.227Z,18.17
2023-02-05T19:19:12.536Z,21.02
2023-02-05T19:21:40.578Z,16.63
2023-02-05T19:24:10.578Z,18.25
2023-02-05T19:26:40.092Z,16.25
2023-02-05T19:29:12.799Z,16.13
2023-02-05T19:31:40.434Z,22.77
2023-02-05T19:34:08.109Z,22.73
2023-02-05T19:36:36.208Z,22.95
2023-02-05T19:39:07.468Z,23.67
2023-02-05T19:41:36.423Z,27.65
2023-02-05T19:44:07.707Z,25.92
2023-02-05T19:46:48.980Z,22.08
2023-02-05T19:49:20.254Z,32.30
2023-02-05T19:51:50.826Z,25.55
2023-02-05T19:54:20.583Z,29.17
2023-02-05T19:56:48.894Z,26.25
2023-02-05T19:59:16.689Z,28.60
2023-02-05T20:01:45.254Z,26.85
2023-02-05T20:04:19.107Z,29.80
2023-02-05T20:06:47.213Z,26.52
2023-02-05T20:09:16.531Z,28.63
2023-02-05T20:11:47.759Z,31.50
2023-02-05T20:14:17.126Z,33.15
2023-02-05T20:16:45.136Z,35.25
2023-02-05T20:19:14.674Z,33.65
2023-02-05T20:21:42.820Z,43.45
2023-02-05T20:24:10.321Z,38.85
2023-02-05T20:26:38.133Z,43.05
2023-02-05T20:29:24.172Z,43.20
2023-02-05T20:31:52.951Z,42.33
2023-02-05T20:34:26.324Z,40.15
2023-02-05T20:36:57.309Z,42.63
2023-02-05T20:39:28.785Z,39.85
2023-02-05T20:41:58.394Z,47.40
2023-02-05T20:44:27.597Z,49.55
2023-02-05T20:46:55.083Z,47.13
2023-02-05T20:49:22.783Z,46.28
2023-02-05T20:51:49.811Z,45.45
2023-02-05T20:54:17.301Z,46.47
2023-02-05T20:56:44.559Z,54.28
2023-02-05T20:59:12.731Z,47.92
2023-02-05T21:01:40.657Z,50.60
2023-02-05T21:04:09.858Z,52.58
2023-02-05T21:06:40.106Z,48.17
2023-02-05T21:09:09.288Z,48.20
2023-02-05T21:11:37.829Z,47.95
2023-02-05T21:14:06.067Z,47.88
2023-02-05T21:16:35.220Z,49.63
2023-02-05T21:19:05.524Z,46.38
2023-02-05T21:21:36.039Z,51.90
2023-02-05T21:24:07.545Z,52.78
2023-02-05T21:26:38.242Z,56.35
2023-02-05T21:29:10.137Z,54.47
2023-02-05T21:31:43.912Z,47.78
2023-02-05T21:34:29.189Z,50.58
2023-02-05T21:36:57.910Z,49.95
2023-02-05T21:39:25.460Z,61.55
2023-02-05T21:41:53.295Z,56.50
2023-02-05T21:44:20.391Z,59.90
2023-02-05T21:46:47.562Z,64.30
2023-02-05T21:49:14.980Z,59.58
2023-02-05T21:51:42.401Z,57.05
2023-02-05T21:54:10.781Z,46.78
2023-02-05T21:56:41.643Z,57.08
2023-02-05T21:59:11.056Z,53.92
2023-02-05T22:01:38.680Z,46.10
2023-02-05T22:04:12.161Z,53.03
2023-02-05T22:06:39.881Z,48.10
2023-02-05T22:09:09.911Z,57.50
2023-02-05T22:11:39.458Z,52.85
2023-02-05T22:14:07.560Z,49.45
2023-02-05T22:16:36.132Z,43.90
2023-02-05T22:19:04.565Z,41.75
2023-02-05T22:21:38.476Z,45.80
2023-02-05T22:24:06.996Z,42.17
2023-02-05T22:26:38.086Z,46.95
2023-02-05T22:29:07.454Z,49.75
2023-02-05T22:31:35.300Z,44.90
2023-02-05T22:34:03.949Z,45.90
2023-02-05T22:36:33.657Z,48.47
2023-02-05T22:39:01.213Z,49.58
2023-02-05T22:41:47.848Z,50.40
2023-02-05T22:44:14.890Z,48.47
2023-02-05T22:46:43.873Z,45.30
2023-02-05T22:49:15.530Z,51.42
2023-02-05T22:51:43.411Z,51.20
2023-02-05T22:54:13.942Z,53.22
2023-02-05T22:56:40.947Z,59.85
2023-02-05T22:59:08.744Z,57.38
2023-02-05T23:01:40.265Z,57.35
2023-02-05T23:04:09.295Z,54.15
2023-02-05T23:06:40.744Z,46.28
2023-02-05T23:09:16.610Z,54.97
2023-02-05T23:11:44.302Z,51.38
2023-02-05T23:14:13.724Z,50.42
2023-02-05T23:16:44.941Z,51.90
2023-02-05T23:19:18.711Z,70.95
2023-02-05T23:21:47.045Z,52.10
2023-02-05T23:24:14.788Z,61.08
2023-02-05T23:26:46.065Z,58.10
2023-02-05T23:29:15.437Z,57.22
2023-02-05T23:31:43.054Z,60.15
2023-02-05T23:34:10.346Z,52.25
2023-02-05T23:36:37.576Z,59.92
2023-02-05T23:39:05.050Z,55.88
2023-02-05T23:41:39.406Z,54.58
2023-02-05T23:44:18.717Z,55.33
2023-02-05T23:46:48.238Z,58.55
2023-02-05T23:49:16.284Z,49.75
2023-02-05T23:51:43.174Z,46.00
2023-02-05T23:54:11.907Z,53.40
2023-02-05T23:56:39.102Z,53.85
2023-02-05T23:59:07.008Z,40.97
